createdAt,value
2018-08-30T00:02:09.921Z,100809.66
2018-08-30T00:07:12.995Z,100807.51
2018-08-30T00:12:16.085Z,100819.67
2018-08-30T00:17:19.197Z,100819.54
2018-08-30T00:22:22.289Z,100822.42
2018-08-30T00:27:25.369Z,100833.44
2018-08-30T00:32:28.425Z,100828.70
2018-08-30T00:37:31.518Z,100835.06
2018-08-30T00:42:34.569Z,100840.66
2018-08-30T00:47:37.709Z,100839.26
2018-08-30T00:52:40.764Z,100847.84
2018-08-30T00:57:44.054Z,100858.09
2018-08-30T01:02:47.111Z,100859.24
2018-08-30T01:07:50.269Z,100865.45
2018-08-30T01:12:54.447Z,100875.31
2018-08-30T01:17:57.503Z,100883.59
2018-08-30T01:23:00.662Z,100883.17
2018-08-30T01:28:03.916Z,100883.52
2018-08-30T01:33:07.086Z,100883.87
2018-08-30T01:38:10.125Z,100887.53
2018-08-30T01:43:13.202Z,100890.55
2018-08-30T01:48:16.291Z,100888.86
2018-08-30T01:53:19.373Z,100894.55
2018-08-30T01:58:22.477Z,100894.94
2018-08-30T02:03:25.570Z,100898.64
2018-08-30T02:08:28.709Z,100903.47
2018-08-30T02:13:31.770Z,100900.25
2018-08-30T02:18:34.841Z,100894.73
2018-08-30T02:23:37.889Z,100896.42
2018-08-30T02:28:41.046Z,100905.00
2018-08-30T02:33:44.171Z,100903.17
2018-08-30T02:38:47.246Z,100914.08
2018-08-30T02:43:50.286Z,100916.31
2018-08-30T02:48:53.361Z,100915.44
2018-08-30T02:53:56.499Z,100921.61
2018-08-30T02:58:59.603Z,100921.89
2018-08-30T03:04:02.948Z,100922.26
2018-08-30T03:09:07.953Z,100922.16
2018-08-30T03:14:12.055Z,100922.67
2018-08-30T03:19:15.136Z,100926.77
2018-08-30T03:24:18.203Z,100923.26
2018-08-30T03:29:21.406Z,100928.20
2018-08-30T03:34:24.528Z,100929.23
2018-08-30T03:39:27.638Z,100935.22
2018-08-30T03:44:30.806Z,100939.30
2018-08-30T03:49:33.966Z,100947.00
2018-08-30T03:54:37.125Z,100954.39
2018-08-30T03:59:41.524Z,100954.85
2018-08-30T04:04:45.075Z,100959.95
2018-08-30T04:09:49.753Z,100961.28
2018-08-30T04:14:55.306Z,100965.83
2018-08-30T04:20:00.311Z,100972.09
2018-08-30T04:25:04.884Z,100968.11
2018-08-30T04:30:09.654Z,100976.06
2018-08-30T04:35:13.153Z,100975.67
2018-08-30T04:40:16.342Z,100986.11
2018-08-30T04:45:19.429Z,100990.19
2018-08-30T04:50:22.600Z,100992.17
2018-08-30T04:55:25.718Z,100997.47
2018-08-30T05:00:28.848Z,101004.00
2018-08-30T05:05:32.885Z,101004.11
2018-08-30T05:10:36.064Z,101011.56
2018-08-30T05:15:39.112Z,101023.99
2018-08-30T05:20:42.391Z,101024.16
2018-08-30T05:25:45.430Z,101034.59
2018-08-30T05:30:48.576Z,101035.11
2018-08-30T05:35:51.704Z,101045.70
2018-08-30T05:40:55.745Z,101046.47
2018-08-30T05:45:58.829Z,101049.33
2018-08-30T05:51:02.117Z,101033.27
2018-08-30T05:56:05.278Z,101055.13
2018-08-30T06:01:08.405Z,101055.42
2018-08-30T06:06:14.255Z,101069.55
2018-08-30T06:11:18.915Z,101072.20
2018-08-30T06:16:24.044Z,101071.03
2018-08-30T06:21:28.575Z,101073.42
2018-08-30T06:26:33.229Z,101082.02
2018-08-30T06:31:37.746Z,101085.63
2018-08-30T06:36:42.277Z,101086.20
2018-08-30T06:41:46.946Z,101093.09
2018-08-30T06:46:51.358Z,101099.46
2018-08-30T06:51:54.469Z,101104.17
2018-08-30T06:56:57.623Z,101111.39
2018-08-30T07:02:00.673Z,101113.98
2018-08-30T07:07:03.898Z,101118.47
2018-08-30T07:12:07.050Z,101128.44
2018-08-30T07:17:10.221Z,101130.80
2018-08-30T07:22:13.329Z,101137.91
2018-08-30T07:27:17.541Z,101143.97
2018-08-30T07:32:20.650Z,101143.55
2018-08-30T07:37:23.807Z,101151.70
2018-08-30T07:42:26.854Z,101151.98
2018-08-30T07:47:35.802Z,101159.34
2018-08-30T07:52:39.182Z,101158.25
2018-08-30T07:57:42.325Z,101158.97
2018-08-30T08:02:46.191Z,101164.88
2018-08-30T08:07:49.372Z,101163.70
2018-08-30T08:12:52.536Z,101171.12
2018-08-30T08:17:56.374Z,101177.31
2018-08-30T08:23:00.088Z,101167.75
2018-08-30T08:28:03.235Z,101173.08
2018-08-30T08:33:06.448Z,101172.52
2018-08-30T08:38:09.574Z,101187.33
2018-08-30T08:43:13.491Z,101193.06
2018-08-30T08:48:16.629Z,101211.78
2018-08-30T08:53:19.766Z,101218.58
2018-08-30T08:58:22.948Z,101216.41
2018-08-30T09:03:26.035Z,101211.25
2018-08-30T09:08:29.261Z,101219.13
2018-08-30T09:13:32.590Z,101227.75
2018-08-30T09:18:35.659Z,101223.14
2018-08-30T09:23:38.788Z,101227.64
2018-08-30T09:28:41.979Z,101234.70
2018-08-30T09:33:45.237Z,101225.86
2018-08-30T09:38:48.266Z,101223.53
2018-08-30T09:43:51.441Z,101231.94
2018-08-30T09:48:55.814Z,101234.11
2018-08-30T09:53:59.067Z,101230.56
2018-08-30T09:59:03.353Z,101235.41
2018-08-30T10:04:07.442Z,101229.58
2018-08-30T10:09:11.242Z,101249.23
2018-08-30T10:14:14.334Z,101248.39
2018-08-30T10:19:18.327Z,101247.26
2018-08-30T10:24:22.024Z,101160.34
2018-08-30T10:29:25.300Z,101244.38
2018-08-30T10:34:28.397Z,101248.16
2018-08-30T10:39:31.585Z,101260.75
2018-08-30T10:44:34.798Z,101260.67
2018-08-30T10:49:38.030Z,101259.82
2018-08-30T10:54:43.277Z,101259.94
2018-08-30T10:59:46.416Z,101259.69
2018-08-30T11:04:49.577Z,101259.95
2018-08-30T11:09:54.372Z,101256.89
2018-08-30T11:14:57.654Z,101249.81
2018-08-30T11:20:00.830Z,101261.88
2018-08-30T11:25:04.146Z,101259.61
2018-08-30T11:30:09.026Z,101268.06
2018-08-30T11:35:12.446Z,101253.13
2018-08-30T11:40:15.612Z,101276.08
2018-08-30T11:45:18.923Z,101288.22
2018-08-30T11:50:22.138Z,101286.89
2018-08-30T11:55:25.442Z,101289.44
2018-08-30T12:00:28.565Z,101285.72
2018-08-30T12:05:32.549Z,101296.09
2018-08-30T12:10:37.554Z,101311.08
2018-08-30T12:15:40.658Z,101301.59
2018-08-30T12:20:43.935Z,101301.95
2018-08-30T12:25:47.027Z,101297.96
2018-08-30T12:30:50.103Z,101282.09
2018-08-30T12:35:53.703Z,101301.85
2018-08-30T12:40:57.151Z,101309.44
2018-08-30T12:46:00.969Z,101326.34
2018-08-30T12:51:04.795Z,101342.46
2018-08-30T12:56:07.923Z,101342.17
2018-08-30T13:01:12.766Z,101344.19
2018-08-30T13:06:16.723Z,101353.13
2018-08-30T13:11:20.024Z,101361.97
2018-08-30T13:16:22.939Z,101369.86
2018-08-30T13:21:26.152Z,101378.54
2018-08-30T13:26:29.216Z,101370.59
2018-08-30T13:31:32.616Z,101378.19
2018-08-30T13:36:35.564Z,101386.04
2018-08-30T13:41:39.109Z,101385.42
2018-08-30T13:46:42.189Z,101381.17
2018-08-30T13:51:45.382Z,101397.06
2018-08-30T13:56:48.315Z,101400.03
2018-08-30T14:01:51.292Z,101414.53
2018-08-30T14:06:54.299Z,101419.58
2018-08-30T14:11:57.505Z,101417.99
2018-08-30T14:17:00.245Z,101428.75
2018-08-30T14:22:03.354Z,101430.98
2018-08-30T14:27:06.524Z,101441.84
2018-08-30T14:32:09.622Z,101440.52
2018-08-30T14:37:12.778Z,101447.77
2018-08-30T14:42:15.787Z,101454.47
2018-08-30T14:47:19.305Z,101456.22
2018-08-30T14:52:22.461Z,101460.66
2018-08-30T14:57:25.480Z,101467.13
2018-08-30T15:02:28.546Z,101461.45
2018-08-30T15:07:31.663Z,101460.53
2018-08-30T15:12:34.808Z,101462.62
2018-08-30T15:17:38.430Z,101467.34
2018-08-30T15:22:42.679Z,101467.02
2018-08-30T15:27:45.722Z,101471.25
2018-08-30T15:32:48.760Z,101475.49
2018-08-30T15:37:51.857Z,101476.40
2018-08-30T15:42:54.910Z,101490.22
2018-08-30T15:47:57.993Z,101492.09
2018-08-30T15:53:01.178Z,101493.28
2018-08-30T15:58:04.304Z,101497.77
2018-08-30T16:03:08.405Z,101504.58
2018-08-30T16:08:11.759Z,101492.91
2018-08-30T16:13:15.087Z,101494.41
2018-08-30T16:18:18.204Z,101491.29
2018-08-30T16:23:41.347Z,101491.22
2018-08-30T16:28:44.434Z,101505.04
2018-08-30T16:33:47.680Z,101510.05
2018-08-30T16:44:14.970Z,101522.53
2018-08-30T16:49:18.065Z,101521.38
2018-08-30T16:54:21.149Z,101525.59
2018-08-30T16:59:24.344Z,101530.34
2018-08-30T17:04:27.507Z,101536.89
2018-08-30T17:09:30.729Z,101546.96
2018-08-30T17:14:33.884Z,101549.52
2018-08-30T17:19:37.070Z,101550.88
2018-08-30T17:24:40.194Z,101555.23
2018-08-30T17:29:44.619Z,101556.28
2018-08-30T17:34:47.963Z,101558.85
2018-08-30T17:39:51.276Z,101557.92
2018-08-30T17:44:55.241Z,101565.98
2018-08-30T17:49:58.373Z,101571.02
2018-08-30T17:55:01.442Z,101579.63
2018-08-30T18:00:06.242Z,101580.41
2018-08-30T18:05:09.309Z,101583.03
2018-08-30T18:10:12.437Z,101578.95
2018-08-30T18:15:15.890Z,101579.63
2018-08-30T18:20:19.026Z,101587.07
2018-08-30T18:25:22.198Z,101595.98
2018-08-30T18:30:25.262Z,101598.55
2018-08-30T18:35:28.361Z,101609.10
2018-08-30T18:40:31.473Z,101613.82
2018-08-30T18:45:34.535Z,101620.11
2018-08-30T18:50:37.618Z,101625.50
2018-08-30T18:55:40.686Z,101629.66
2018-08-30T19:00:43.767Z,101643.30
2018-08-30T19:05:46.849Z,101645.43
2018-08-30T19:10:49.946Z,101660.52
2018-08-30T19:15:58.560Z,101659.06
2018-08-30T19:21:01.653Z,101665.44
2018-08-30T19:26:05.961Z,101668.53
2018-08-30T19:31:08.995Z,101673.73
2018-08-30T19:36:17.545Z,101672.47
2018-08-30T19:41:21.829Z,101677.30
2018-08-30T19:46:24.937Z,101675.67
2018-08-30T19:51:28.077Z,101680.78
2018-08-30T19:56:31.165Z,101686.97
2018-08-30T20:01:34.368Z,101692.12
2018-08-30T20:06:37.527Z,101701.46
2018-08-30T20:11:40.663Z,101690.23
2018-08-30T20:16:43.739Z,101697.67
2018-08-30T20:21:46.819Z,101700.14
2018-08-30T20:26:49.911Z,101698.24
2018-08-30T20:31:52.971Z,101705.53
2018-08-30T20:36:56.094Z,101708.85
2018-08-30T20:41:59.214Z,101710.12
2018-08-30T20:47:02.384Z,101712.33
2018-08-30T20:52:05.813Z,101720.45
2018-08-30T20:57:08.927Z,101725.23
2018-08-30T21:02:12.304Z,101724.19
2018-08-30T21:07:15.413Z,101731.91
2018-08-30T21:12:18.707Z,101728.99
2018-08-30T21:17:21.893Z,101724.36
2018-08-30T21:22:24.932Z,101724.95
2018-08-30T21:27:27.984Z,101727.70
2018-08-30T21:32:31.370Z,101719.63
2018-08-30T21:37:34.441Z,101716.33
2018-08-30T21:42:37.642Z,101723.07
2018-08-30T21:47:40.737Z,101721.98
2018-08-30T21:52:43.923Z,101722.58
2018-08-30T21:57:47.010Z,101722.84
2018-08-30T22:02:50.238Z,101723.34
2018-08-30T22:07:53.350Z,101725.96
2018-08-30T22:12:56.493Z,101723.23
2018-08-30T22:17:59.497Z,101734.21
2018-08-30T22:23:02.527Z,101730.15
2018-08-30T22:28:06.081Z,101730.98
2018-08-30T22:33:09.201Z,101723.05
2018-08-30T22:38:12.295Z,101722.81
2018-08-30T22:43:15.393Z,101722.88
2018-08-30T22:48:18.448Z,101716.38
2018-08-30T22:53:21.518Z,101718.75
2018-08-30T22:58:24.571Z,101717.00
2018-08-30T23:03:27.703Z,101715.63
2018-08-30T23:08:30.815Z,101713.28
2018-08-30T23:13:33.857Z,101724.65
2018-08-30T23:18:36.983Z,101725.58
2018-08-30T23:23:40.048Z,101726.81
2018-08-30T23:28:43.121Z,101711.50
2018-08-30T23:33:46.303Z,101712.25
2018-08-30T23:38:49.560Z,101715.13
2018-08-30T23:43:52.726Z,101710.88
2018-08-30T23:48:55.830Z,101707.72
2018-08-30T23:53:58.921Z,101721.36
2018-08-30T23:59:19.276Z,101717.77
